createdAt,value
2023-04-25T00:04:38.627Z,99.90
2023-04-25T00:07:23.813Z,99.90
2023-04-25T00:37:12.087Z,99.90
2023-04-25T00:39:37.183Z,99.90
2023-04-25T01:00:59.302Z,99.90
2023-04-25T01:25:11.504Z,99.90
2023-04-25T01:34:08.650Z,99.90
2023-04-25T01:58:23.724Z,99.90
2023-04-25T02:01:06.179Z,99.90
2023-04-25T02:03:42.376Z,99.90
2023-04-25T02:06:17.588Z,99.90
2023-04-25T02:08:53.112Z,99.90
2023-04-25T02:11:43.311Z,99.90
2023-04-25T02:14:26.557Z,99.90
2023-04-25T02:16:59.971Z,99.90
2023-04-25T02:19:26.863Z,99.90
2023-04-25T02:22:32.617Z,99.90
2023-04-25T02:25:14.823Z,99.90
2023-04-25T02:36:41.546Z,99.90
2023-04-25T02:42:15.397Z,99.90
2023-04-25T02:44:57.282Z,99.90
2023-04-25T02:47:24.818Z,99.90
2023-04-25T02:53:20.645Z,99.90
2023-04-25T02:59:18.486Z,99.90
2023-04-25T03:02:03.748Z,99.90
2023-04-25T03:07:18.469Z,99.90
2023-04-25T03:09:48.561Z,99.90
2023-04-25T03:12:28.687Z,99.90
2023-04-25T03:15:08.605Z,99.90
2023-04-25T03:17:48.287Z,99.90
2023-04-25T03:20:15.414Z,99.90
2023-04-25T03:23:16.595Z,99.90
2023-04-25T03:25:43.419Z,99.90
2023-04-25T03:28:10.184Z,99.90
2023-04-25T03:30:45.433Z,99.90
2023-04-25T03:33:26.668Z,99.90
2023-04-25T03:36:09.465Z,99.90
2023-04-25T03:38:36.788Z,99.90
2023-04-25T03:41:21.548Z,99.90
2023-04-25T03:44:00.605Z,99.90
2023-04-25T03:46:37.007Z,99.90
2023-04-25T03:49:22.570Z,99.90
2023-04-25T03:51:56.465Z,99.90
2023-04-25T03:54:29.321Z,99.90
2023-04-25T03:56:56.040Z,99.90
2023-04-25T03:59:34.374Z,99.90
2023-04-25T04:02:23.390Z,99.90
2023-04-25T04:04:57.687Z,99.90
2023-04-25T04:07:29.921Z,99.90
2023-04-25T04:12:38.613Z,99.90
2023-04-25T04:15:11.823Z,99.90
2023-04-25T04:17:39.327Z,99.90
2023-04-25T04:25:41.483Z,99.90
2023-04-25T04:31:12.205Z,99.90
2023-04-25T04:33:39.137Z,99.90
2023-04-25T04:36:06.621Z,99.90
2023-04-25T04:42:09.310Z,99.90
2023-04-25T04:48:11.090Z,99.90
2023-04-25T04:50:56.432Z,99.90
2023-04-25T04:53:32.413Z,99.90
2023-04-25T05:07:47.183Z,99.90
2023-04-25T05:24:30.597Z,99.90
2023-04-25T05:27:01.221Z,99.90
2023-04-25T05:29:47.631Z,99.90
2023-04-25T05:33:25.674Z,99.90
2023-04-25T05:39:09.344Z,99.90
2023-04-25T05:41:45.299Z,99.90
2023-04-25T05:44:29.656Z,99.90
2023-04-25T05:46:56.694Z,99.90
2023-04-25T05:49:43.892Z,99.90
2023-04-25T05:52:19.556Z,99.90
2023-04-25T05:54:57.997Z,99.90
2023-04-25T05:57:27.846Z,99.90
2023-04-25T06:00:07.581Z,99.90
2023-04-25T06:02:43.862Z,99.90
2023-04-25T06:05:27.378Z,99.90
2023-04-25T06:07:54.425Z,99.90
2023-04-25T06:10:35.198Z,99.90
2023-04-25T06:13:07.406Z,99.90
2023-04-25T06:15:43.267Z,99.90
2023-04-25T06:18:31.646Z,99.90
2023-04-25T06:23:43.331Z,99.90
2023-04-25T06:26:25.893Z,99.90
2023-04-25T06:29:22.815Z,99.90
2023-04-25T06:34:34.193Z,99.90
2023-04-25T06:39:49.084Z,99.90
2023-04-25T06:42:37.788Z,99.10
2023-04-25T06:45:30.768Z,96.80
2023-04-25T06:48:00.393Z,91.90
2023-04-25T06:50:38.480Z,94.10
2023-04-25T06:53:27.099Z,91.10
2023-04-25T06:56:01.865Z,92.70
2023-04-25T06:58:31.025Z,92.70
2023-04-25T07:01:07.631Z,93.70
2023-04-25T07:03:43.807Z,94.60
2023-04-25T07:06:10.975Z,95.40
2023-04-25T07:08:40.807Z,94.80
2023-04-25T07:11:16.749Z,95.70
2023-04-25T07:13:43.549Z,96.80
2023-04-25T07:16:10.370Z,96.60
2023-04-25T07:22:06.905Z,96.20
2023-04-25T07:24:48.464Z,98.00
2023-04-25T07:27:25.199Z,99.90
2023-04-25T07:30:04.394Z,96.30
2023-04-25T07:32:47.884Z,96.20
2023-04-25T07:35:20.532Z,95.80
2023-04-25T07:43:29.671Z,92.70
2023-04-25T07:46:08.541Z,91.60
2023-04-25T07:48:35.254Z,92.20
2023-04-25T07:51:12.866Z,91.60
2023-04-25T07:53:51.878Z,90.00
2023-04-25T07:56:45.442Z,86.50
2023-04-25T07:59:16.264Z,86.70
2023-04-25T08:01:45.885Z,84.10
2023-04-25T08:04:12.719Z,82.30
2023-04-25T08:07:01.141Z,85.10
2023-04-25T08:09:27.901Z,82.40
2023-04-25T08:11:54.677Z,79.90
2023-04-25T08:14:36.892Z,80.10
2023-04-25T08:17:19.394Z,75.20
2023-04-25T08:19:46.256Z,77.40
2023-04-25T08:22:25.120Z,74.70
2023-04-25T08:24:51.846Z,72.80
2023-04-25T08:27:20.048Z,73.00
2023-04-25T08:29:55.488Z,74.30
2023-04-25T08:32:22.385Z,72.50
2023-04-25T08:34:51.969Z,74.20
2023-04-25T08:37:18.793Z,69.70
2023-04-25T08:39:45.395Z,63.30
2023-04-25T08:42:18.730Z,66.60
2023-04-25T08:44:58.736Z,64.70
2023-04-25T08:47:30.525Z,64.40
2023-04-25T08:49:57.359Z,64.50
2023-04-25T08:52:38.211Z,64.00
2023-04-25T08:55:08.003Z,67.00
2023-04-25T08:57:35.323Z,65.60
2023-04-25T09:00:18.200Z,59.70
2023-04-25T09:02:45.324Z,68.60
2023-04-25T09:05:21.941Z,65.70
2023-04-25T09:07:50.576Z,69.60
2023-04-25T09:10:17.770Z,69.50
2023-04-25T09:13:07.373Z,69.40
2023-04-25T09:15:34.423Z,66.90
2023-04-25T09:18:09.934Z,65.80
2023-04-25T09:23:39.872Z,67.20
2023-04-25T09:26:08.884Z,64.00
2023-04-25T09:32:20.687Z,64.50
2023-04-25T09:35:02.383Z,65.30
2023-04-25T09:37:45.716Z,66.60
2023-04-25T09:40:19.930Z,70.70
2023-04-25T09:43:22.800Z,76.90
2023-04-25T09:48:35.611Z,84.80
2023-04-25T09:51:13.847Z,84.20
2023-04-25T09:54:16.734Z,84.80
2023-04-25T09:57:28.854Z,85.40
2023-04-25T10:15:40.345Z,80.30
2023-04-25T10:18:08.796Z,77.60
2023-04-25T10:23:32.743Z,74.80
2023-04-25T10:26:33.663Z,73.30
2023-04-25T10:29:06.209Z,71.70
2023-04-25T10:32:10.725Z,67.80
2023-04-25T10:43:50.812Z,67.60
2023-04-25T10:46:45.340Z,68.40
2023-04-25T10:49:32.061Z,67.50
2023-04-25T10:55:19.341Z,67.70
2023-04-25T10:57:47.005Z,68.20
2023-04-25T11:00:56.725Z,67.70
2023-04-25T11:12:32.972Z,63.80
2023-04-25T11:15:04.406Z,65.70
2023-04-25T11:17:31.558Z,67.30
2023-04-25T11:19:58.407Z,67.90
2023-04-25T11:25:18.823Z,68.10
2023-04-25T11:30:39.313Z,66.80
2023-04-25T11:33:07.561Z,66.20
2023-04-25T11:35:43.550Z,65.20
2023-04-25T11:38:29.633Z,63.30
2023-04-25T11:40:56.426Z,63.10
2023-04-25T11:43:23.631Z,65.10
2023-04-25T11:45:55.164Z,62.60
2023-04-25T11:48:39.232Z,64.10
2023-04-25T11:51:18.331Z,65.20
2023-04-25T11:53:53.046Z,67.20
2023-04-25T11:56:21.157Z,70.80
2023-04-25T11:59:01.028Z,73.50
2023-04-25T12:01:35.764Z,76.10
2023-04-25T12:04:20.146Z,78.00
2023-04-25T12:06:48.130Z,81.90
2023-04-25T12:11:59.948Z,80.00
2023-04-25T12:14:28.736Z,79.70
2023-04-25T12:17:03.845Z,79.70
2023-04-25T12:23:07.868Z,78.90
2023-04-25T12:25:52.717Z,76.20
2023-04-25T12:31:07.845Z,75.60
2023-04-25T12:33:55.154Z,77.10
2023-04-25T12:36:36.706Z,76.50
2023-04-25T12:39:03.457Z,74.90
2023-04-25T12:41:30.183Z,69.50
2023-04-25T12:44:15.466Z,68.90
2023-04-25T12:46:42.267Z,66.70
2023-04-25T12:49:19.510Z,66.90
2023-04-25T12:51:49.513Z,67.70
2023-04-25T12:54:26.687Z,65.10
2023-04-25T12:57:09.076Z,60.90
2023-04-25T12:59:35.706Z,60.10
2023-04-25T13:02:02.472Z,56.80
2023-04-25T13:04:41.102Z,58.50
2023-04-25T13:07:07.781Z,56.00
2023-04-25T13:09:37.652Z,52.00
2023-04-25T13:12:04.626Z,54.50
2023-04-25T13:14:38.748Z,50.70
2023-04-25T13:17:05.395Z,57.00
2023-04-25T13:19:48.457Z,52.60
2023-04-25T13:22:15.250Z,51.70
2023-04-25T13:25:07.448Z,51.60
2023-04-25T13:30:17.608Z,54.40
2023-04-25T13:32:47.525Z,51.80
2023-04-25T13:35:14.886Z,51.10
2023-04-25T13:37:47.621Z,53.50
2023-04-25T13:40:14.416Z,54.10
2023-04-25T13:43:00.387Z,53.70
2023-04-25T13:45:27.254Z,54.50
2023-04-25T13:47:53.953Z,58.10
2023-04-25T13:50:39.564Z,57.60
2023-04-25T13:53:18.289Z,60.80
2023-04-25T13:56:03.091Z,67.90
2023-04-25T13:58:44.539Z,71.70
2023-04-25T14:01:23.431Z,73.70
2023-04-25T14:03:59.485Z,72.00
2023-04-25T14:06:26.574Z,71.40
2023-04-25T14:09:11.226Z,69.30
2023-04-25T14:11:38.210Z,67.40
2023-04-25T14:14:20.854Z,64.20
2023-04-25T14:16:53.572Z,64.30
2023-04-25T14:19:32.766Z,64.50
2023-04-25T14:22:01.702Z,62.80
2023-04-25T14:24:34.557Z,65.30
2023-04-25T14:27:04.714Z,68.30
2023-04-25T14:29:36.784Z,68.60
2023-04-25T14:32:06.939Z,69.60
2023-04-25T14:34:37.480Z,70.70
2023-04-25T14:37:04.327Z,69.10
2023-04-25T14:39:30.959Z,68.00
2023-04-25T14:41:57.641Z,62.30
2023-04-25T14:44:30.854Z,62.40
2023-04-25T14:47:31.546Z,62.80
2023-04-25T14:50:00.645Z,58.70
2023-04-25T14:52:39.998Z,58.10
2023-04-25T14:55:43.715Z,57.00
2023-04-25T14:58:10.446Z,56.00
2023-04-25T15:00:48.869Z,57.90
2023-04-25T15:03:34.150Z,58.70
2023-04-25T15:06:13.138Z,55.30
2023-04-25T15:08:39.809Z,52.60
2023-04-25T15:11:06.652Z,53.50
2023-04-25T15:13:33.480Z,52.10
2023-04-25T15:16:00.183Z,53.60
2023-04-25T15:18:29.373Z,53.70
2023-04-25T15:20:56.078Z,56.90
2023-04-25T15:23:23.539Z,60.20
2023-04-25T15:25:51.695Z,61.00
2023-04-25T15:28:23.492Z,61.20
2023-04-25T15:30:56.043Z,63.30
2023-04-25T15:33:37.215Z,63.90
2023-04-25T15:36:07.388Z,63.80
2023-04-25T15:38:34.196Z,65.60
2023-04-25T15:41:05.480Z,66.00
2023-04-25T15:43:33.286Z,67.40
2023-04-25T15:46:03.568Z,67.20
2023-04-25T15:51:16.918Z,68.80
2023-04-25T15:54:00.882Z,67.00
2023-04-25T15:56:40.040Z,65.50
2023-04-25T15:59:06.939Z,66.70
2023-04-25T16:01:33.857Z,63.20
2023-04-25T16:04:17.141Z,62.90
2023-04-25T16:06:46.752Z,62.40
2023-04-25T16:09:14.746Z,62.10
2023-04-25T16:11:41.687Z,63.10
2023-04-25T16:14:18.030Z,60.40
2023-04-25T16:16:57.429Z,61.00
2023-04-25T16:19:33.113Z,58.50
2023-04-25T16:22:08.997Z,56.80
2023-04-25T16:24:35.720Z,57.30
2023-04-25T16:27:17.573Z,57.80
2023-04-25T16:29:44.206Z,61.40
2023-04-25T16:32:22.569Z,58.80
2023-04-25T16:34:49.232Z,61.50
2023-04-25T16:37:15.820Z,58.50
2023-04-25T16:39:54.205Z,61.10
2023-04-25T16:42:42.240Z,60.10
2023-04-25T16:45:15.238Z,62.50
2023-04-25T16:47:42.007Z,57.60
2023-04-25T16:50:24.025Z,56.40
2023-04-25T16:55:31.265Z,59.70
2023-04-25T16:57:57.938Z,60.00
2023-04-25T17:00:34.507Z,61.40
2023-04-25T17:03:01.338Z,59.20
2023-04-25T17:05:31.522Z,59.40
2023-04-25T17:07:58.454Z,58.30
2023-04-25T17:10:25.264Z,57.90
2023-04-25T17:12:57.945Z,58.60
2023-04-25T17:15:24.633Z,59.40
2023-04-25T17:17:51.214Z,59.40
2023-04-25T17:20:17.859Z,61.30
2023-04-25T17:22:44.724Z,62.30
2023-04-25T17:25:11.737Z,62.80
2023-04-25T17:27:38.633Z,63.40
2023-04-25T17:30:12.569Z,62.30
2023-04-25T17:32:54.391Z,62.70
2023-04-25T17:35:33.572Z,63.80
2023-04-25T17:38:00.692Z,66.80
2023-04-25T17:43:49.444Z,69.20
2023-04-25T17:46:25.167Z,69.00
2023-04-25T17:48:52.094Z,69.90
2023-04-25T17:51:18.997Z,70.60
2023-04-25T17:53:46.322Z,71.20
2023-04-25T17:56:25.399Z,72.30
2023-04-25T17:58:59.607Z,72.60
2023-04-25T18:01:27.599Z,72.30
2023-04-25T18:04:06.488Z,72.70
2023-04-25T18:06:33.189Z,74.00
2023-04-25T18:09:07.765Z,74.20
2023-04-25T18:11:47.688Z,75.20
2023-04-25T18:14:21.682Z,74.60
2023-04-25T18:16:50.411Z,76.00
2023-04-25T18:19:17.164Z,75.40
2023-04-25T18:21:54.871Z,76.20
2023-04-25T18:24:23.547Z,76.20
2023-04-25T18:26:50.868Z,77.50
2023-04-25T18:29:31.475Z,78.30
2023-04-25T18:32:00.266Z,79.30
2023-04-25T18:34:31.404Z,79.10
2023-04-25T18:36:58.236Z,79.60
2023-04-25T18:39:25.255Z,79.70
2023-04-25T18:41:59.290Z,80.90
2023-04-25T18:45:19.537Z,81.30
2023-04-25T18:48:11.721Z,81.80
2023-04-25T18:50:39.521Z,82.00
2023-04-25T18:53:19.325Z,83.20
2023-04-25T18:55:58.081Z,84.20
2023-04-25T18:58:27.489Z,84.70
2023-04-25T19:00:54.255Z,85.80
2023-04-25T19:03:23.875Z,86.60
2023-04-25T19:05:59.371Z,87.60
2023-04-25T19:08:29.152Z,87.90
2023-04-25T19:10:55.885Z,88.30
2023-04-25T19:13:27.747Z,88.50
2023-04-25T19:16:00.681Z,88.90
2023-04-25T19:18:27.290Z,88.70
2023-04-25T19:20:59.544Z,88.10
2023-04-25T19:23:32.570Z,87.40
2023-04-25T19:26:07.943Z,85.40
2023-04-25T19:28:34.684Z,85.20
2023-04-25T19:33:51.011Z,84.40
2023-04-25T19:36:17.823Z,83.50
2023-04-25T19:38:47.660Z,83.90
2023-04-25T19:41:20.065Z,83.90
2023-04-25T19:44:06.995Z,83.80
2023-04-25T19:46:35.382Z,84.40
2023-04-25T19:49:03.148Z,85.30
2023-04-25T19:51:30.843Z,85.50
2023-04-25T19:54:12.651Z,87.10
2023-04-25T19:56:48.347Z,87.30
2023-04-25T19:59:24.055Z,88.10
2023-04-25T20:02:07.407Z,89.00
2023-04-25T20:04:34.549Z,89.80
2023-04-25T20:07:12.745Z,90.60
2023-04-25T20:09:39.461Z,90.50
2023-04-25T20:12:08.832Z,89.90
2023-04-25T20:14:42.020Z,90.10
2023-04-25T20:19:52.195Z,90.10
2023-04-25T20:22:19.014Z,88.90
2023-04-25T20:24:57.283Z,88.30
2023-04-25T20:27:29.022Z,89.00
2023-04-25T20:30:09.656Z,88.60
2023-04-25T20:32:44.548Z,89.00
2023-04-25T20:35:18.289Z,89.60
2023-04-25T20:37:55.249Z,88.60
2023-04-25T20:40:21.948Z,89.20
2023-04-25T20:43:03.823Z,89.50
2023-04-25T20:45:30.868Z,89.50
2023-04-25T20:48:11.042Z,90.00
2023-04-25T20:50:37.828Z,90.60
2023-04-25T20:53:04.541Z,91.20
2023-04-25T20:55:31.301Z,91.50
2023-04-25T20:58:10.237Z,91.80
2023-04-25T21:00:36.860Z,92.50
2023-04-25T21:03:16.962Z,93.00
2023-04-25T21:05:53.037Z,93.40
2023-04-25T21:08:19.645Z,93.70
2023-04-25T21:10:46.383Z,93.80
2023-04-25T21:13:13.196Z,93.80
2023-04-25T21:15:52.101Z,94.20
2023-04-25T21:18:18.699Z,94.70
2023-04-25T21:21:01.918Z,95.30
2023-04-25T21:23:37.902Z,96.10
2023-04-25T21:26:04.764Z,97.40
2023-04-25T21:28:45.934Z,98.00
2023-04-25T21:33:55.480Z,97.90
2023-04-25T21:36:23.259Z,98.50
2023-04-25T21:38:51.153Z,98.80
2023-04-25T21:41:20.878Z,99.40
2023-04-25T21:43:47.789Z,99.90
2023-04-25T21:46:23.506Z,99.90
2023-04-25T21:48:53.601Z,99.90
2023-04-25T21:51:20.753Z,99.90
2023-04-25T21:53:56.292Z,99.90
2023-04-25T21:56:22.889Z,99.90
2023-04-25T21:58:49.841Z,99.90
2023-04-25T22:01:26.219Z,99.90
2023-04-25T22:03:53.767Z,99.90
2023-04-25T22:06:20.477Z,99.90
2023-04-25T22:08:47.079Z,99.90
2023-04-25T22:11:23.467Z,99.90
2023-04-25T22:13:50.746Z,99.90
2023-04-25T22:16:17.449Z,99.90
2023-04-25T22:18:44.210Z,99.90
2023-04-25T22:21:10.974Z,99.90
2023-04-25T22:23:37.747Z,99.90
2023-04-25T22:26:04.908Z,99.90
2023-04-25T22:28:32.087Z,99.90
2023-04-25T22:30:58.830Z,99.90
2023-04-25T22:33:25.616Z,99.90
2023-04-25T22:35:52.229Z,99.90
2023-04-25T22:38:18.921Z,99.90
2023-04-25T22:40:45.589Z,99.90
2023-04-25T22:43:12.154Z,99.90
2023-04-25T22:45:38.821Z,99.90
2023-04-25T22:48:05.958Z,99.90
2023-04-25T22:50:32.581Z,99.90
2023-04-25T22:52:59.189Z,99.90
2023-04-25T22:55:25.968Z,99.90
2023-04-25T22:57:52.731Z,99.90
2023-04-25T23:00:19.448Z,99.90
2023-04-25T23:02:46.922Z,99.90
2023-04-25T23:05:15.013Z,99.90
2023-04-25T23:07:41.745Z,99.90
2023-04-25T23:10:08.912Z,99.90
2023-04-25T23:12:36.033Z,99.90
2023-04-25T23:15:02.702Z,99.90
2023-04-25T23:17:29.418Z,99.90
2023-04-25T23:19:56.125Z,99.90
2023-04-25T23:22:22.855Z,99.90
2023-04-25T23:24:49.430Z,99.90
2023-04-25T23:27:15.993Z,99.90
2023-04-25T23:29:51.834Z,99.90
2023-04-25T23:32:18.527Z,99.90
2023-04-25T23:34:50.358Z,99.90
2023-04-25T23:37:23.504Z,99.90
2023-04-25T23:39:59.451Z,99.90
2023-04-25T23:42:26.110Z,99.90
2023-04-25T23:44:53.825Z,99.90
2023-04-25T23:47:32.709Z,99.90
2023-04-25T23:49:59.383Z,99.90
2023-04-25T23:52:29.110Z,99.90
2023-04-25T23:55:08.295Z,99.90
2023-04-25T23:57:37.800Z,99.90
